KTAD

Perry Stokes Airport

Trinidad, Colorado, USA
METAR KTAD 231054Z AUTO 29009KT 10SM CLR M09/M16 A3013 RMK AO2 SLP213 T10891161
Observed Flight Rules
Jan-23 @ 10:54 UTC (an hour ago) Visual Flight Rules
Wind Visibility Clouds
290° at 9 knots 10 miles
  • Clear skies
Temperatures Readings
Current -9°C / 16°F
Dewpoint -16°C / 3°F
Humidity 57%
Altimeter 30.13" Hg
Pressure 1021.3 hPa
Elevation 1756
METAR KTAD 231054Z AUTO 29009KT 10SM CLR M09/M16 A3013 RMK AO2 SLP213 T10891161
Observed Flight Rules
Jan-23 @ 10:54 UTC
(an hour ago)
VFR
Wind Visibility
290° at 9 knots 10 miles
Clouds
  • Clear skies
Temperature Dewpoint
-9°C / 16°F -16°C / 3°F
Humidity Altimeter Pressure
57% 30.13" Hg 1021.3 hPa